Terminal Aerodrome Forecast
Issued by NWS

Home | Current Version | Previous Version | Text Only | Print | Product List | Glossary On
Versions: 1 2 3 4 5 6 7 8 9 10 11 12 13 14 15 16 17 18 19 20 21 22 23 24
000
FTUS44 KEWX 172300
TAFSSF
TAF
KSSF 172329Z 1800/1824 04005KT P6SM OVC015
     FM180200 VRB03KT 5SM -DZ BR OVC010
     FM180800 VRB02KT 1SM -DZ BR OVC003
     FM181700 03003KT P6SM OVC015
     FM182000 05004KT P6SM OVC035=

USA.gov is the U.S. government's official web portal to all federal, state and local government web resources and services.